sensor_id;sensor_type;location;lat;lon;timestamp;P1;durP1;ratioP1;P2;durP2;ratioP2
17024;SDS011;8629;42.496;25.620;2023-03-09T00:01:18;5.07;;;3.57;;
17024;SDS011;8629;42.496;25.620;2023-03-09T00:03:45;7.00;;;6.27;;
17024;SDS011;8629;42.496;25.620;2023-03-09T00:06:12;7.80;;;6.47;;
17024;SDS011;8629;42.496;25.620;2023-03-09T00:08:39;9.17;;;5.83;;
17024;SDS011;8629;42.496;25.620;2023-03-09T00:11:08;7.93;;;4.33;;
17024;SDS011;8629;42.496;25.620;2023-03-09T00:13:35;6.37;;;3.57;;
17024;SDS011;8629;42.496;25.620;2023-03-09T00:16:11;3.37;;;3.07;;
17024;SDS011;8629;42.496;25.620;2023-03-09T00:18:39;5.17;;;2.77;;
17024;SDS011;8629;42.496;25.620;2023-03-09T00:21:06;2.53;;;2.43;;
17024;SDS011;8629;42.496;25.620;2023-03-09T00:23:40;3.87;;;3.23;;
17024;SDS011;8629;42.496;25.620;2023-03-09T00:26:09;3.20;;;2.90;;
17024;SDS011;8629;42.496;25.620;2023-03-09T00:28:36;4.80;;;2.67;;
17024;SDS011;8629;42.496;25.620;2023-03-09T00:31:05;2.53;;;2.33;;
17024;SDS011;8629;42.496;25.620;2023-03-09T00:33:32;2.90;;;2.50;;
17024;SDS011;8629;42.496;25.620;2023-03-09T00:35:59;6.13;;;2.90;;
17024;SDS011;8629;42.496;25.620;2023-03-09T00:38:26;3.57;;;3.07;;
17024;SDS011;8629;42.496;25.620;2023-03-09T00:40:52;3.20;;;2.93;;
17024;SDS011;8629;42.496;25.620;2023-03-09T00:43:20;3.77;;;2.87;;
17024;SDS011;8629;42.496;25.620;2023-03-09T00:45:47;2.77;;;2.57;;
17024;SDS011;8629;42.496;25.620;2023-03-09T00:48:14;2.70;;;2.50;;
17024;SDS011;8629;42.496;25.620;2023-03-09T00:50:40;3.60;;;3.30;;
17024;SDS011;8629;42.496;25.620;2023-03-09T00:53:07;3.63;;;3.03;;
17024;SDS011;8629;42.496;25.620;2023-03-09T00:55:34;3.30;;;3.00;;
17024;SDS011;8629;42.496;25.620;2023-03-09T00:58:01;4.17;;;2.90;;
17024;SDS011;8629;42.496;25.620;2023-03-09T01:00:29;5.80;;;2.77;;
17024;SDS011;8629;42.496;25.620;2023-03-09T01:02:58;5.23;;;3.73;;
17024;SDS011;8629;42.496;25.620;2023-03-09T01:05:25;4.97;;;4.47;;
17024;SDS011;8629;42.496;25.620;2023-03-09T01:07:51;4.00;;;3.60;;
17024;SDS011;8629;42.496;25.620;2023-03-09T01:10:18;6.00;;;4.03;;
17024;SDS011;8629;42.496;25.620;2023-03-09T01:12:45;4.40;;;3.63;;
17024;SDS011;8629;42.496;25.620;2023-03-09T01:15:12;3.43;;;3.10;;
17024;SDS011;8629;42.496;25.620;2023-03-09T01:17:40;4.70;;;3.50;;
17024;SDS011;8629;42.496;25.620;2023-03-09T01:20:08;8.77;;;5.50;;
17024;SDS011;8629;42.496;25.620;2023-03-09T01:22:36;4.60;;;4.00;;
17024;SDS011;8629;42.496;25.620;2023-03-09T01:25:03;5.23;;;3.87;;
17024;SDS011;8629;42.496;25.620;2023-03-09T01:27:30;4.30;;;3.83;;
17024;SDS011;8629;42.496;25.620;2023-03-09T01:29:57;4.33;;;3.57;;
17024;SDS011;8629;42.496;25.620;2023-03-09T01:32:24;5.30;;;3.63;;
17024;SDS011;8629;42.496;25.620;2023-03-09T01:34:52;6.27;;;3.80;;
17024;SDS011;8629;42.496;25.620;2023-03-09T01:37:19;4.53;;;3.40;;
17024;SDS011;8629;42.496;25.620;2023-03-09T01:39:45;5.17;;;3.43;;
17024;SDS011;8629;42.496;25.620;2023-03-09T01:42:12;4.40;;;3.50;;
17024;SDS011;8629;42.496;25.620;2023-03-09T01:44:39;4.40;;;3.07;;
17024;SDS011;8629;42.496;25.620;2023-03-09T01:47:06;2.97;;;2.73;;
17024;SDS011;8629;42.496;25.620;2023-03-09T01:49:34;4.10;;;3.63;;
17024;SDS011;8629;42.496;25.620;2023-03-09T01:52:13;4.17;;;3.27;;
17024;SDS011;8629;42.496;25.620;2023-03-09T01:54:44;4.20;;;3.43;;
17024;SDS011;8629;42.496;25.620;2023-03-09T01:57:16;3.90;;;3.07;;
17024;SDS011;8629;42.496;25.620;2023-03-09T01:59:47;5.23;;;3.53;;
17024;SDS011;8629;42.496;25.620;2023-03-09T02:02:15;3.37;;;3.07;;
17024;SDS011;8629;42.496;25.620;2023-03-09T02:04:43;5.13;;;3.27;;
17024;SDS011;8629;42.496;25.620;2023-03-09T02:07:13;3.77;;;3.47;;
17024;SDS011;8629;42.496;25.620;2023-03-09T02:09:44;4.17;;;2.93;;
17024;SDS011;8629;42.496;25.620;2023-03-09T02:12:13;4.80;;;2.70;;
17024;SDS011;8629;42.496;25.620;2023-03-09T02:14:42;3.70;;;3.30;;
17024;SDS011;8629;42.496;25.620;2023-03-09T02:17:09;3.80;;;3.43;;
17024;SDS011;8629;42.496;25.620;2023-03-09T02:19:39;4.40;;;3.70;;
17024;SDS011;8629;42.496;25.620;2023-03-09T02:22:10;3.13;;;2.93;;
17024;SDS011;8629;42.496;25.620;2023-03-09T02:24:41;4.93;;;2.80;;
17024;SDS011;8629;42.496;25.620;2023-03-09T02:27:15;4.30;;;3.40;;
17024;SDS011;8629;42.496;25.620;2023-03-09T02:29:43;4.63;;;3.70;;
17024;SDS011;8629;42.496;25.620;2023-03-09T02:32:10;4.00;;;3.53;;
17024;SDS011;8629;42.496;25.620;2023-03-09T02:34:37;3.50;;;3.20;;
17024;SDS011;8629;42.496;25.620;2023-03-09T02:37:04;3.80;;;3.50;;
17024;SDS011;8629;42.496;25.620;2023-03-09T02:39:33;3.93;;;3.23;;
17024;SDS011;8629;42.496;25.620;2023-03-09T02:42:02;4.60;;;3.47;;
17024;SDS011;8629;42.496;25.620;2023-03-09T02:44:32;4.60;;;3.40;;
17024;SDS011;8629;42.496;25.620;2023-03-09T02:46:59;3.30;;;3.00;;
17024;SDS011;8629;42.496;25.620;2023-03-09T02:49:26;4.27;;;2.80;;
17024;SDS011;8629;42.496;25.620;2023-03-09T02:51:53;4.03;;;3.53;;
17024;SDS011;8629;42.496;25.620;2023-03-09T02:54:19;4.80;;;3.90;;
17024;SDS011;8629;42.496;25.620;2023-03-09T02:56:46;3.93;;;3.40;;
17024;SDS011;8629;42.496;25.620;2023-03-09T02:59:13;5.57;;;3.40;;
17024;SDS011;8629;42.496;25.620;2023-03-09T03:01:41;3.53;;;3.10;;
17024;SDS011;8629;42.496;25.620;2023-03-09T03:04:08;3.97;;;3.23;;
17024;SDS011;8629;42.496;25.620;2023-03-09T03:06:34;3.63;;;3.33;;
17024;SDS011;8629;42.496;25.620;2023-03-09T03:09:01;6.23;;;3.50;;
17024;SDS011;8629;42.496;25.620;2023-03-09T03:11:28;3.83;;;3.50;;
17024;SDS011;8629;42.496;25.620;2023-03-09T03:13:55;4.97;;;3.50;;
17024;SDS011;8629;42.496;25.620;2023-03-09T03:16:21;3.87;;;3.47;;
17024;SDS011;8629;42.496;25.620;2023-03-09T03:18:49;3.83;;;3.50;;
17024;SDS011;8629;42.496;25.620;2023-03-09T03:21:16;4.43;;;3.60;;
17024;SDS011;8629;42.496;25.620;2023-03-09T03:23:43;3.97;;;3.47;;
17024;SDS011;8629;42.496;25.620;2023-03-09T03:26:10;2.97;;;2.73;;
17024;SDS011;8629;42.496;25.620;2023-03-09T03:28:37;3.13;;;2.83;;
17024;SDS011;8629;42.496;25.620;2023-03-09T03:31:04;3.47;;;3.00;;
17024;SDS011;8629;42.496;25.620;2023-03-09T03:33:31;3.60;;;2.87;;
17024;SDS011;8629;42.496;25.620;2023-03-09T03:35:59;4.33;;;2.87;;
17024;SDS011;8629;42.496;25.620;2023-03-09T03:38:25;3.13;;;2.83;;
17024;SDS011;8629;42.496;25.620;2023-03-09T03:40:52;3.07;;;2.57;;
17024;SDS011;8629;42.496;25.620;2023-03-09T03:43:19;5.73;;;3.40;;
17024;SDS011;8629;42.496;25.620;2023-03-09T03:45:46;4.43;;;4.03;;
17024;SDS011;8629;42.496;25.620;2023-03-09T03:48:12;5.17;;;4.13;;
17024;SDS011;8629;42.496;25.620;2023-03-09T03:50:39;7.43;;;5.90;;
17024;SDS011;8629;42.496;25.620;2023-03-09T03:53:08;5.27;;;4.13;;
17024;SDS011;8629;42.496;25.620;2023-03-09T03:55:34;6.50;;;4.80;;
17024;SDS011;8629;42.496;25.620;2023-03-09T03:58:02;6.43;;;4.60;;
17024;SDS011;8629;42.496;25.620;2023-03-09T04:00:29;5.33;;;4.37;;
17024;SDS011;8629;42.496;25.620;2023-03-09T04:02:56;4.83;;;4.33;;
17024;SDS011;8629;42.496;25.620;2023-03-09T04:05:23;8.53;;;4.87;;
17024;SDS011;8629;42.496;25.620;2023-03-09T04:07:50;13.37;;;7.77;;
17024;SDS011;8629;42.496;25.620;2023-03-09T04:10:19;14.50;;;8.93;;
17024;SDS011;8629;42.496;25.620;2023-03-09T04:12:45;25.97;;;14.27;;
17024;SDS011;8629;42.496;25.620;2023-03-09T04:15:12;15.37;;;11.73;;
17024;SDS011;8629;42.496;25.620;2023-03-09T04:17:39;10.47;;;8.33;;
17024;SDS011;8629;42.496;25.620;2023-03-09T04:20:06;9.30;;;7.13;;
17024;SDS011;8629;42.496;25.620;2023-03-09T04:22:34;11.23;;;7.70;;
17024;SDS011;8629;42.496;25.620;2023-03-09T04:25:01;9.27;;;6.70;;
17024;SDS011;8629;42.496;25.620;2023-03-09T04:27:29;7.13;;;5.60;;
17024;SDS011;8629;42.496;25.620;2023-03-09T04:29:56;7.00;;;5.70;;
17024;SDS011;8629;42.496;25.620;2023-03-09T04:32:22;6.10;;;4.97;;
17024;SDS011;8629;42.496;25.620;2023-03-09T04:34:49;6.73;;;5.03;;
17024;SDS011;8629;42.496;25.620;2023-03-09T04:37:18;6.13;;;4.50;;
17024;SDS011;8629;42.496;25.620;2023-03-09T04:39:45;18.03;;;12.60;;
17024;SDS011;8629;42.496;25.620;2023-03-09T04:42:12;16.33;;;11.40;;
17024;SDS011;8629;42.496;25.620;2023-03-09T04:44:40;22.20;;;17.03;;
17024;SDS011;8629;42.496;25.620;2023-03-09T04:47:07;10.73;;;9.10;;
17024;SDS011;8629;42.496;25.620;2023-03-09T04:49:35;14.40;;;12.23;;
17024;SDS011;8629;42.496;25.620;2023-03-09T04:52:01;14.90;;;10.83;;
17024;SDS011;8629;42.496;25.620;2023-03-09T04:54:28;10.93;;;9.10;;
17024;SDS011;8629;42.496;25.620;2023-03-09T04:56:55;10.93;;;9.83;;
17024;SDS011;8629;42.496;25.620;2023-03-09T04:59:22;19.20;;;14.13;;
17024;SDS011;8629;42.496;25.620;2023-03-09T05:01:50;19.23;;;12.17;;
17024;SDS011;8629;42.496;25.620;2023-03-09T05:04:17;34.90;;;27.83;;
17024;SDS011;8629;42.496;25.620;2023-03-09T05:06:44;22.60;;;20.13;;
17024;SDS011;8629;42.496;25.620;2023-03-09T05:09:13;12.50;;;10.77;;
17024;SDS011;8629;42.496;25.620;2023-03-09T05:11:41;9.57;;;7.83;;
17024;SDS011;8629;42.496;25.620;2023-03-09T05:14:08;13.27;;;8.60;;
17024;SDS011;8629;42.496;25.620;2023-03-09T05:16:34;15.00;;;10.43;;
17024;SDS011;8629;42.496;25.620;2023-03-09T05:19:03;7.83;;;6.80;;
17024;SDS011;8629;42.496;25.620;2023-03-09T05:21:30;10.00;;;6.80;;
17024;SDS011;8629;42.496;25.620;2023-03-09T05:23:57;8.47;;;7.67;;
17024;SDS011;8629;42.496;25.620;2023-03-09T05:26:24;8.87;;;6.83;;
17024;SDS011;8629;42.496;25.620;2023-03-09T05:28:52;6.10;;;5.23;;
17024;SDS011;8629;42.496;25.620;2023-03-09T05:31:19;9.70;;;7.97;;
17024;SDS011;8629;42.496;25.620;2023-03-09T05:33:46;9.53;;;8.43;;
17024;SDS011;8629;42.496;25.620;2023-03-09T05:36:15;18.33;;;11.73;;
17024;SDS011;8629;42.496;25.620;2023-03-09T05:38:43;5.67;;;5.03;;
17024;SDS011;8629;42.496;25.620;2023-03-09T05:41:10;9.40;;;8.37;;
17024;SDS011;8629;42.496;25.620;2023-03-09T05:43:36;11.63;;;9.93;;
17024;SDS011;8629;42.496;25.620;2023-03-09T05:46:06;26.43;;;20.10;;
17024;SDS011;8629;42.496;25.620;2023-03-09T05:48:34;32.43;;;20.60;;
17024;SDS011;8629;42.496;25.620;2023-03-09T05:51:01;10.77;;;9.43;;
17024;SDS011;8629;42.496;25.620;2023-03-09T05:53:29;9.00;;;7.83;;
17024;SDS011;8629;42.496;25.620;2023-03-09T05:55:57;11.00;;;9.90;;
17024;SDS011;8629;42.496;25.620;2023-03-09T05:58:24;11.03;;;9.77;;
17024;SDS011;8629;42.496;25.620;2023-03-09T06:00:51;13.20;;;9.90;;
17024;SDS011;8629;42.496;25.620;2023-03-09T06:03:17;42.57;;;31.63;;
17024;SDS011;8629;42.496;25.620;2023-03-09T06:05:44;17.23;;;13.27;;
17024;SDS011;8629;42.496;25.620;2023-03-09T06:08:11;20.23;;;13.87;;
17024;SDS011;8629;42.496;25.620;2023-03-09T06:10:39;22.80;;;16.97;;
17024;SDS011;8629;42.496;25.620;2023-03-09T06:13:06;26.90;;;22.23;;
17024;SDS011;8629;42.496;25.620;2023-03-09T06:15:33;35.67;;;28.70;;
17024;SDS011;8629;42.496;25.620;2023-03-09T06:18:03;23.20;;;17.97;;
17024;SDS011;8629;42.496;25.620;2023-03-09T06:20:29;23.07;;;18.77;;
17024;SDS011;8629;42.496;25.620;2023-03-09T06:22:56;25.57;;;16.83;;
17024;SDS011;8629;42.496;25.620;2023-03-09T06:25:23;17.40;;;13.17;;
17024;SDS011;8629;42.496;25.620;2023-03-09T06:27:51;19.13;;;12.27;;
17024;SDS011;8629;42.496;25.620;2023-03-09T06:30:18;22.50;;;16.03;;
17024;SDS011;8629;42.496;25.620;2023-03-09T06:32:46;21.97;;;15.80;;
17024;SDS011;8629;42.496;25.620;2023-03-09T06:35:13;10.83;;;8.07;;
17024;SDS011;8629;42.496;25.620;2023-03-09T06:37:40;14.20;;;7.30;;
17024;SDS011;8629;42.496;25.620;2023-03-09T06:40:07;8.00;;;7.27;;
17024;SDS011;8629;42.496;25.620;2023-03-09T06:42:37;9.00;;;8.10;;
17024;SDS011;8629;42.496;25.620;2023-03-09T06:45:06;8.90;;;7.67;;
17024;SDS011;8629;42.496;25.620;2023-03-09T06:47:33;9.43;;;7.47;;
17024;SDS011;8629;42.496;25.620;2023-03-09T06:50:00;16.73;;;12.40;;
17024;SDS011;8629;42.496;25.620;2023-03-09T06:52:27;10.67;;;8.07;;
17024;SDS011;8629;42.496;25.620;2023-03-09T06:54:54;9.20;;;6.23;;
17024;SDS011;8629;42.496;25.620;2023-03-09T06:57:20;7.30;;;6.00;;
17024;SDS011;8629;42.496;25.620;2023-03-09T06:59:47;10.43;;;7.80;;
17024;SDS011;8629;42.496;25.620;2023-03-09T07:02:15;11.47;;;9.63;;
17024;SDS011;8629;42.496;25.620;2023-03-09T07:04:42;13.60;;;10.70;;
17024;SDS011;8629;42.496;25.620;2023-03-09T07:07:09;7.77;;;6.60;;
17024;SDS011;8629;42.496;25.620;2023-03-09T07:09:35;9.73;;;5.67;;
17024;SDS011;8629;42.496;25.620;2023-03-09T07:12:02;10.10;;;6.73;;
17024;SDS011;8629;42.496;25.620;2023-03-09T07:14:30;5.37;;;4.83;;
17024;SDS011;8629;42.496;25.620;2023-03-09T07:16:56;4.17;;;3.20;;
17024;SDS011;8629;42.496;25.620;2023-03-09T07:19:25;3.50;;;2.97;;
17024;SDS011;8629;42.496;25.620;2023-03-09T07:21:52;3.53;;;2.70;;
17024;SDS011;8629;42.496;25.620;2023-03-09T07:24:19;5.53;;;4.10;;
17024;SDS011;8629;42.496;25.620;2023-03-09T07:26:47;4.03;;;3.00;;
17024;SDS011;8629;42.496;25.620;2023-03-09T07:29:14;3.93;;;2.97;;
17024;SDS011;8629;42.496;25.620;2023-03-09T07:31:41;4.57;;;2.17;;
17024;SDS011;8629;42.496;25.620;2023-03-09T07:34:08;2.83;;;2.43;;
17024;SDS011;8629;42.496;25.620;2023-03-09T07:36:36;4.30;;;2.37;;
17024;SDS011;8629;42.496;25.620;2023-03-09T07:39:03;4.47;;;3.27;;
17024;SDS011;8629;42.496;25.620;2023-03-09T07:41:30;3.70;;;3.40;;
17024;SDS011;8629;42.496;25.620;2023-03-09T07:43:57;2.23;;;2.03;;
17024;SDS011;8629;42.496;25.620;2023-03-09T07:46:24;2.37;;;2.17;;
17024;SDS011;8629;42.496;25.620;2023-03-09T07:48:51;5.00;;;2.67;;
17024;SDS011;8629;42.496;25.620;2023-03-09T07:51:18;4.70;;;3.60;;
17024;SDS011;8629;42.496;25.620;2023-03-09T07:53:48;4.90;;;3.53;;
17024;SDS011;8629;42.496;25.620;2023-03-09T07:56:14;5.50;;;3.30;;
17024;SDS011;8629;42.496;25.620;2023-03-09T07:58:41;4.47;;;2.33;;
17024;SDS011;8629;42.496;25.620;2023-03-09T08:01:12;6.50;;;3.20;;
17024;SDS011;8629;42.496;25.620;2023-03-09T08:03:39;2.47;;;2.27;;
17024;SDS011;8629;42.496;25.620;2023-03-09T08:06:06;3.40;;;1.93;;
17024;SDS011;8629;42.496;25.620;2023-03-09T08:08:34;4.30;;;1.90;;
17024;SDS011;8629;42.496;25.620;2023-03-09T08:11:02;2.87;;;2.60;;
17024;SDS011;8629;42.496;25.620;2023-03-09T08:13:30;2.20;;;2.00;;
17024;SDS011;8629;42.496;25.620;2023-03-09T08:15:58;3.60;;;2.90;;
17024;SDS011;8629;42.496;25.620;2023-03-09T08:18:26;1.63;;;1.50;;
17024;SDS011;8629;42.496;25.620;2023-03-09T08:20:53;3.70;;;1.97;;
17024;SDS011;8629;42.496;25.620;2023-03-09T08:23:20;3.43;;;2.03;;
17024;SDS011;8629;42.496;25.620;2023-03-09T08:25:51;1.87;;;1.77;;
17024;SDS011;8629;42.496;25.620;2023-03-09T08:28:20;4.63;;;3.20;;
17024;SDS011;8629;42.496;25.620;2023-03-09T08:30:48;1.67;;;1.57;;
17024;SDS011;8629;42.496;25.620;2023-03-09T08:33:15;5.67;;;1.97;;
17024;SDS011;8629;42.496;25.620;2023-03-09T08:35:41;3.17;;;2.10;;
17024;SDS011;8629;42.496;25.620;2023-03-09T08:38:08;2.30;;;2.00;;
17024;SDS011;8629;42.496;25.620;2023-03-09T08:40:36;3.87;;;2.40;;
17024;SDS011;8629;42.496;25.620;2023-03-09T08:43:03;2.93;;;2.30;;
17024;SDS011;8629;42.496;25.620;2023-03-09T08:45:31;2.37;;;2.17;;
17024;SDS011;8629;42.496;25.620;2023-03-09T08:47:58;4.23;;;3.33;;
17024;SDS011;8629;42.496;25.620;2023-03-09T08:50:26;4.97;;;3.67;;
17024;SDS011;8629;42.496;25.620;2023-03-09T08:52:52;4.33;;;3.90;;
17024;SDS011;8629;42.496;25.620;2023-03-09T08:55:19;5.07;;;4.07;;
17024;SDS011;8629;42.496;25.620;2023-03-09T08:57:46;5.60;;;4.13;;
17024;SDS011;8629;42.496;25.620;2023-03-09T09:00:13;7.10;;;4.90;;
17024;SDS011;8629;42.496;25.620;2023-03-09T09:02:42;5.47;;;4.90;;
17024;SDS011;8629;42.496;25.620;2023-03-09T09:05:09;8.60;;;4.90;;
17024;SDS011;8629;42.496;25.620;2023-03-09T09:07:36;6.60;;;4.00;;
17024;SDS011;8629;42.496;25.620;2023-03-09T09:10:03;14.03;;;6.03;;
17024;SDS011;8629;42.496;25.620;2023-03-09T09:12:30;4.30;;;3.00;;
17024;SDS011;8629;42.496;25.620;2023-03-09T09:15:02;2.63;;;1.80;;
17024;SDS011;8629;42.496;25.620;2023-03-09T09:17:29;2.67;;;2.47;;
17024;SDS011;8629;42.496;25.620;2023-03-09T09:19:58;3.47;;;2.90;;
17024;SDS011;8629;42.496;25.620;2023-03-09T09:22:24;3.00;;;2.30;;
17024;SDS011;8629;42.496;25.620;2023-03-09T09:24:51;3.53;;;3.10;;
17024;SDS011;8629;42.496;25.620;2023-03-09T09:27:18;2.20;;;2.00;;
17024;SDS011;8629;42.496;25.620;2023-03-09T09:29:45;2.63;;;2.40;;
17024;SDS011;8629;42.496;25.620;2023-03-09T09:32:12;7.13;;;3.50;;
17024;SDS011;8629;42.496;25.620;2023-03-09T09:34:38;5.97;;;3.00;;
17024;SDS011;8629;42.496;25.620;2023-03-09T09:37:07;4.50;;;3.30;;
17024;SDS011;8629;42.496;25.620;2023-03-09T09:39:36;6.00;;;4.33;;
17024;SDS011;8629;42.496;25.620;2023-03-09T09:42:03;5.77;;;2.80;;
17024;SDS011;8629;42.496;25.620;2023-03-09T09:44:32;5.43;;;3.03;;
17024;SDS011;8629;42.496;25.620;2023-03-09T09:47:01;4.17;;;3.77;;
17024;SDS011;8629;42.496;25.620;2023-03-09T09:49:30;5.10;;;3.40;;
17024;SDS011;8629;42.496;25.620;2023-03-09T09:52:17;6.97;;;4.00;;
17024;SDS011;8629;42.496;25.620;2023-03-09T09:54:49;6.00;;;4.07;;
17024;SDS011;8629;42.496;25.620;2023-03-09T09:57:19;4.37;;;3.50;;
17024;SDS011;8629;42.496;25.620;2023-03-09T09:59:52;7.00;;;4.00;;
17024;SDS011;8629;42.496;25.620;2023-03-09T10:02:38;6.87;;;4.10;;
17024;SDS011;8629;42.496;25.620;2023-03-09T10:05:11;4.30;;;3.90;;
17024;SDS011;8629;42.496;25.620;2023-03-09T10:07:43;4.13;;;3.63;;
17024;SDS011;8629;42.496;25.620;2023-03-09T10:10:11;4.27;;;3.50;;
17024;SDS011;8629;42.496;25.620;2023-03-09T10:12:41;4.60;;;3.60;;
17024;SDS011;8629;42.496;25.620;2023-03-09T10:15:11;4.37;;;3.70;;
17024;SDS011;8629;42.496;25.620;2023-03-09T10:17:39;5.63;;;3.10;;
17024;SDS011;8629;42.496;25.620;2023-03-09T10:20:22;4.90;;;3.10;;
17024;SDS011;8629;42.496;25.620;2023-03-09T10:22:52;3.07;;;2.83;;
17024;SDS011;8629;42.496;25.620;2023-03-09T10:25:21;6.47;;;3.50;;
17024;SDS011;8629;42.496;25.620;2023-03-09T10:27:50;3.03;;;2.73;;
17024;SDS011;8629;42.496;25.620;2023-03-09T10:30:25;5.23;;;3.73;;
17024;SDS011;8629;42.496;25.620;2023-03-09T10:33:00;4.93;;;3.30;;
17024;SDS011;8629;42.496;25.620;2023-03-09T10:35:31;8.23;;;3.43;;
17024;SDS011;8629;42.496;25.620;2023-03-09T10:38:02;6.23;;;3.50;;
17024;SDS011;8629;42.496;25.620;2023-03-09T10:40:30;3.53;;;3.20;;
17024;SDS011;8629;42.496;25.620;2023-03-09T10:43:04;3.13;;;2.80;;
17024;SDS011;8629;42.496;25.620;2023-03-09T10:45:33;4.90;;;3.50;;
17024;SDS011;8629;42.496;25.620;2023-03-09T10:48:03;6.47;;;4.03;;
17024;SDS011;8629;42.496;25.620;2023-03-09T10:50:33;5.67;;;5.07;;
17024;SDS011;8629;42.496;25.620;2023-03-09T10:55:54;3.20;;;2.93;;
17024;SDS011;8629;42.496;25.620;2023-03-09T10:58:22;3.97;;;3.03;;
17024;SDS011;8629;42.496;25.620;2023-03-09T11:00:50;3.47;;;3.10;;
17024;SDS011;8629;42.496;25.620;2023-03-09T11:03:20;4.30;;;3.03;;
17024;SDS011;8629;42.496;25.620;2023-03-09T11:05:47;3.13;;;2.80;;
17024;SDS011;8629;42.496;25.620;2023-03-09T11:08:20;4.30;;;2.80;;
17024;SDS011;8629;42.496;25.620;2023-03-09T11:10:52;4.67;;;3.10;;
17024;SDS011;8629;42.496;25.620;2023-03-09T11:13:26;3.20;;;2.90;;
17024;SDS011;8629;42.496;25.620;2023-03-09T11:16:03;4.87;;;2.43;;
17024;SDS011;8629;42.496;25.620;2023-03-09T11:18:31;2.27;;;2.07;;
17024;SDS011;8629;42.496;25.620;2023-03-09T11:20:58;4.47;;;3.30;;
17024;SDS011;8629;42.496;25.620;2023-03-09T11:23:26;3.50;;;2.20;;
17024;SDS011;8629;42.496;25.620;2023-03-09T11:26:07;3.33;;;2.27;;
17024;SDS011;8629;42.496;25.620;2023-03-09T11:31:23;4.20;;;2.17;;
17024;SDS011;8629;42.496;25.620;2023-03-09T11:33:51;2.13;;;1.93;;
17024;SDS011;8629;42.496;25.620;2023-03-09T11:36:23;2.57;;;2.37;;
17024;SDS011;8629;42.496;25.620;2023-03-09T11:38:52;2.80;;;2.43;;
17024;SDS011;8629;42.496;25.620;2023-03-09T11:41:21;20.77;;;14.77;;
17024;SDS011;8629;42.496;25.620;2023-03-09T11:43:53;12.70;;;8.77;;
17024;SDS011;8629;42.496;25.620;2023-03-09T11:46:22;4.83;;;4.40;;
17024;SDS011;8629;42.496;25.620;2023-03-09T11:48:51;7.97;;;2.70;;
17024;SDS011;8629;42.496;25.620;2023-03-09T11:51:21;6.10;;;5.17;;
17024;SDS011;8629;42.496;25.620;2023-03-09T11:53:52;2.20;;;2.00;;
17024;SDS011;8629;42.496;25.620;2023-03-09T11:56:27;2.33;;;1.93;;
17024;SDS011;8629;42.496;25.620;2023-03-09T11:58:57;2.93;;;2.20;;
17024;SDS011;8629;42.496;25.620;2023-03-09T12:01:27;2.13;;;2.00;;
17024;SDS011;8629;42.496;25.620;2023-03-09T12:03:58;2.00;;;1.77;;
17024;SDS011;8629;42.496;25.620;2023-03-09T12:06:27;1.73;;;1.63;;
17024;SDS011;8629;42.496;25.620;2023-03-09T12:08:58;1.87;;;1.73;;
17024;SDS011;8629;42.496;25.620;2023-03-09T12:11:29;1.80;;;1.70;;
17024;SDS011;8629;42.496;25.620;2023-03-09T12:13:59;2.20;;;1.57;;
17024;SDS011;8629;42.496;25.620;2023-03-09T12:16:28;1.97;;;1.87;;
17024;SDS011;8629;42.496;25.620;2023-03-09T12:18:59;2.93;;;1.90;;
17024;SDS011;8629;42.496;25.620;2023-03-09T12:21:29;3.73;;;1.80;;
17024;SDS011;8629;42.496;25.620;2023-03-09T12:23:57;4.33;;;3.13;;
17024;SDS011;8629;42.496;25.620;2023-03-09T12:26:30;2.90;;;1.80;;
17024;SDS011;8629;42.496;25.620;2023-03-09T12:29:16;7.37;;;4.30;;
17024;SDS011;8629;42.496;25.620;2023-03-09T12:31:46;4.00;;;2.60;;
17024;SDS011;8629;42.496;25.620;2023-03-09T12:35:10;2.70;;;1.67;;
17024;SDS011;8629;42.496;25.620;2023-03-09T12:37:56;6.87;;;5.60;;
17024;SDS011;8629;42.496;25.620;2023-03-09T12:40:40;3.00;;;2.47;;
17024;SDS011;8629;42.496;25.620;2023-03-09T12:49:14;3.40;;;2.47;;
17024;SDS011;8629;42.496;25.620;2023-03-09T12:51:41;1.40;;;1.30;;
17024;SDS011;8629;42.496;25.620;2023-03-09T12:54:18;4.17;;;1.70;;
17024;SDS011;8629;42.496;25.620;2023-03-09T12:56:46;1.47;;;1.37;;
17024;SDS011;8629;42.496;25.620;2023-03-09T12:59:14;2.40;;;0.90;;
17024;SDS011;8629;42.496;25.620;2023-03-09T13:01:50;1.20;;;1.10;;
17024;SDS011;8629;42.496;25.620;2023-03-09T13:04:17;2.93;;;1.40;;
17024;SDS011;8629;42.496;25.620;2023-03-09T13:06:50;1.47;;;1.37;;
17024;SDS011;8629;42.496;25.620;2023-03-09T13:09:19;1.07;;;1.07;;
17024;SDS011;8629;42.496;25.620;2023-03-09T13:11:49;1.63;;;1.23;;
17024;SDS011;8629;42.496;25.620;2023-03-09T13:15:04;1.10;;;1.10;;
17024;SDS011;8629;42.496;25.620;2023-03-09T13:18:08;1.87;;;1.67;;
17024;SDS011;8629;42.496;25.620;2023-03-09T13:20:52;1.10;;;1.10;;
17024;SDS011;8629;42.496;25.620;2023-03-09T13:23:19;1.10;;;1.10;;
17024;SDS011;8629;42.496;25.620;2023-03-09T13:25:48;2.10;;;1.50;;
17024;SDS011;8629;42.496;25.620;2023-03-09T13:28:20;2.37;;;1.57;;
17024;SDS011;8629;42.496;25.620;2023-03-09T13:30:50;2.17;;;1.13;;
17024;SDS011;8629;42.496;25.620;2023-03-09T13:33:21;1.57;;;1.40;;
17024;SDS011;8629;42.496;25.620;2023-03-09T13:35:54;1.97;;;1.63;;
17024;SDS011;8629;42.496;25.620;2023-03-09T13:38:24;3.70;;;1.37;;
17024;SDS011;8629;42.496;25.620;2023-03-09T13:40:54;1.50;;;1.40;;
17024;SDS011;8629;42.496;25.620;2023-03-09T13:43:23;1.57;;;1.47;;
17024;SDS011;8629;42.496;25.620;2023-03-09T13:45:57;1.50;;;1.23;;
17024;SDS011;8629;42.496;25.620;2023-03-09T13:48:28;1.73;;;1.50;;
17024;SDS011;8629;42.496;25.620;2023-03-09T13:50:56;1.50;;;1.40;;
17024;SDS011;8629;42.496;25.620;2023-03-09T13:53:23;1.60;;;1.50;;
17024;SDS011;8629;42.496;25.620;2023-03-09T13:55:55;3.43;;;1.37;;
17024;SDS011;8629;42.496;25.620;2023-03-09T13:58:23;1.40;;;1.30;;
17024;SDS011;8629;42.496;25.620;2023-03-09T14:00:52;2.07;;;1.90;;
17024;SDS011;8629;42.496;25.620;2023-03-09T14:03:19;1.47;;;1.37;;
17024;SDS011;8629;42.496;25.620;2023-03-09T14:05:58;1.10;;;1.10;;
17024;SDS011;8629;42.496;25.620;2023-03-09T14:08:26;2.23;;;1.10;;
17024;SDS011;8629;42.496;25.620;2023-03-09T14:10:55;1.97;;;1.03;;
17024;SDS011;8629;42.496;25.620;2023-03-09T14:13:22;2.30;;;1.50;;
17024;SDS011;8629;42.496;25.620;2023-03-09T14:15:57;1.60;;;1.50;;
17024;SDS011;8629;42.496;25.620;2023-03-09T14:18:29;1.47;;;1.37;;
17024;SDS011;8629;42.496;25.620;2023-03-09T14:21:18;1.03;;;1.03;;
17024;SDS011;8629;42.496;25.620;2023-03-09T14:23:46;2.23;;;1.20;;
17024;SDS011;8629;42.496;25.620;2023-03-09T14:26:16;2.00;;;1.00;;
17024;SDS011;8629;42.496;25.620;2023-03-09T14:28:57;0.80;;;0.80;;
17024;SDS011;8629;42.496;25.620;2023-03-09T14:31:28;1.27;;;1.17;;
17024;SDS011;8629;42.496;25.620;2023-03-09T14:33:57;1.50;;;1.10;;
17024;SDS011;8629;42.496;25.620;2023-03-09T14:36:26;0.97;;;0.97;;
17024;SDS011;8629;42.496;25.620;2023-03-09T14:38:55;1.00;;;1.00;;
17024;SDS011;8629;42.496;25.620;2023-03-09T14:41:24;2.03;;;0.90;;
17024;SDS011;8629;42.496;25.620;2023-03-09T14:43:51;1.20;;;1.10;;
17024;SDS011;8629;42.496;25.620;2023-03-09T14:46:19;2.10;;;1.30;;
17024;SDS011;8629;42.496;25.620;2023-03-09T14:48:47;0.90;;;0.87;;
17024;SDS011;8629;42.496;25.620;2023-03-09T14:51:17;1.10;;;1.03;;
17024;SDS011;8629;42.496;25.620;2023-03-09T14:53:50;2.00;;;0.70;;
17024;SDS011;8629;42.496;25.620;2023-03-09T14:56:19;2.00;;;1.30;;
17024;SDS011;8629;42.496;25.620;2023-03-09T14:58:45;1.23;;;1.10;;
17024;SDS011;8629;42.496;25.620;2023-03-09T15:01:12;1.00;;;1.00;;
17024;SDS011;8629;42.496;25.620;2023-03-09T15:03:39;1.77;;;1.10;;
17024;SDS011;8629;42.496;25.620;2023-03-09T15:06:06;4.30;;;1.20;;
17024;SDS011;8629;42.496;25.620;2023-03-09T15:08:33;2.23;;;1.00;;